sensor_id;sensor_type;location;lat;lon;timestamp;temperature;humidity
5834;DHT22;2943;48.012;10.968;2023-09-30T00:01:26;16.70;99.90
5834;DHT22;2943;48.012;10.968;2023-09-30T00:03:52;16.60;99.90
5834;DHT22;2943;48.012;10.968;2023-09-30T00:06:20;16.60;99.90
5834;DHT22;2943;48.012;10.968;2023-09-30T00:08:46;16.60;99.90
5834;DHT22;2943;48.012;10.968;2023-09-30T00:11:14;16.60;99.90
5834;DHT22;2943;48.012;10.968;2023-09-30T00:13:41;16.50;99.90
5834;DHT22;2943;48.012;10.968;2023-09-30T00:16:09;16.50;99.90
5834;DHT22;2943;48.012;10.968;2023-09-30T00:18:36;16.50;99.90
5834;DHT22;2943;48.012;10.968;2023-09-30T00:21:02;16.50;99.90
5834;DHT22;2943;48.012;10.968;2023-09-30T00:23:29;16.50;99.90
5834;DHT22;2943;48.012;10.968;2023-09-30T00:25:55;16.40;99.90
5834;DHT22;2943;48.012;10.968;2023-09-30T00:28:22;16.40;99.90
5834;DHT22;2943;48.012;10.968;2023-09-30T00:30:48;16.40;99.90
5834;DHT22;2943;48.012;10.968;2023-09-30T00:33:16;16.40;99.90
5834;DHT22;2943;48.012;10.968;2023-09-30T00:35:43;16.40;99.90
5834;DHT22;2943;48.012;10.968;2023-09-30T00:38:10;16.40;99.90
5834;DHT22;2943;48.012;10.968;2023-09-30T00:40:37;16.40;99.90
5834;DHT22;2943;48.012;10.968;2023-09-30T00:43:03;16.40;99.90
5834;DHT22;2943;48.012;10.968;2023-09-30T00:45:30;16.40;99.90
5834;DHT22;2943;48.012;10.968;2023-09-30T00:47:57;16.40;99.90
5834;DHT22;2943;48.012;10.968;2023-09-30T00:50:25;16.40;99.90
5834;DHT22;2943;48.012;10.968;2023-09-30T00:52:52;16.40;99.90
5834;DHT22;2943;48.012;10.968;2023-09-30T00:55:19;16.40;99.90
5834;DHT22;2943;48.012;10.968;2023-09-30T00:57:46;16.30;99.90
5834;DHT22;2943;48.012;10.968;2023-09-30T01:00:12;16.30;99.90
5834;DHT22;2943;48.012;10.968;2023-09-30T01:02:39;16.30;99.90
5834;DHT22;2943;48.012;10.968;2023-09-30T01:05:07;16.30;99.90
5834;DHT22;2943;48.012;10.968;2023-09-30T01:07:35;16.30;99.90
5834;DHT22;2943;48.012;10.968;2023-09-30T01:10:02;16.30;99.90
5834;DHT22;2943;48.012;10.968;2023-09-30T01:12:30;16.30;99.90
5834;DHT22;2943;48.012;10.968;2023-09-30T01:14:57;16.30;99.90
5834;DHT22;2943;48.012;10.968;2023-09-30T01:17:24;16.20;99.90
5834;DHT22;2943;48.012;10.968;2023-09-30T01:19:50;16.20;99.90
5834;DHT22;2943;48.012;10.968;2023-09-30T01:22:19;16.20;99.90
5834;DHT22;2943;48.012;10.968;2023-09-30T01:24:45;16.20;99.90
5834;DHT22;2943;48.012;10.968;2023-09-30T01:27:12;16.20;99.90
5834;DHT22;2943;48.012;10.968;2023-09-30T01:29:42;16.20;99.90
5834;DHT22;2943;48.012;10.968;2023-09-30T01:32:08;16.20;99.90
5834;DHT22;2943;48.012;10.968;2023-09-30T01:34:35;16.20;99.90
5834;DHT22;2943;48.012;10.968;2023-09-30T01:37:02;16.10;99.90
5834;DHT22;2943;48.012;10.968;2023-09-30T01:39:30;16.10;99.90
5834;DHT22;2943;48.012;10.968;2023-09-30T01:41:57;16.10;99.90
5834;DHT22;2943;48.012;10.968;2023-09-30T01:44:24;16.10;99.90
5834;DHT22;2943;48.012;10.968;2023-09-30T01:46:51;16.00;99.90
5834;DHT22;2943;48.012;10.968;2023-09-30T01:49:17;16.00;99.90
5834;DHT22;2943;48.012;10.968;2023-09-30T01:51:44;16.00;99.90
5834;DHT22;2943;48.012;10.968;2023-09-30T01:54:11;16.00;99.90
5834;DHT22;2943;48.012;10.968;2023-09-30T01:56:39;16.00;99.90
5834;DHT22;2943;48.012;10.968;2023-09-30T01:59:05;15.90;99.90
5834;DHT22;2943;48.012;10.968;2023-09-30T02:01:32;16.00;99.90
5834;DHT22;2943;48.012;10.968;2023-09-30T02:03:59;16.00;99.90
5834;DHT22;2943;48.012;10.968;2023-09-30T02:06:25;16.00;99.90
5834;DHT22;2943;48.012;10.968;2023-09-30T02:08:52;16.00;99.90
5834;DHT22;2943;48.012;10.968;2023-09-30T02:11:18;16.00;99.90
5834;DHT22;2943;48.012;10.968;2023-09-30T02:13:46;16.00;99.90
5834;DHT22;2943;48.012;10.968;2023-09-30T02:16:13;16.00;99.90
5834;DHT22;2943;48.012;10.968;2023-09-30T02:18:42;16.00;99.90
5834;DHT22;2943;48.012;10.968;2023-09-30T02:21:10;16.00;99.90
5834;DHT22;2943;48.012;10.968;2023-09-30T02:23:36;16.00;99.90
5834;DHT22;2943;48.012;10.968;2023-09-30T02:26:03;16.10;99.90
5834;DHT22;2943;48.012;10.968;2023-09-30T02:28:29;16.10;99.90
5834;DHT22;2943;48.012;10.968;2023-09-30T02:30:59;16.00;99.90
5834;DHT22;2943;48.012;10.968;2023-09-30T02:33:26;16.00;99.90
5834;DHT22;2943;48.012;10.968;2023-09-30T02:35:53;16.00;99.90
5834;DHT22;2943;48.012;10.968;2023-09-30T02:38:19;16.00;99.90
5834;DHT22;2943;48.012;10.968;2023-09-30T02:40:48;16.00;99.90
5834;DHT22;2943;48.012;10.968;2023-09-30T02:43:15;16.00;99.90
5834;DHT22;2943;48.012;10.968;2023-09-30T02:45:42;16.00;99.90
5834;DHT22;2943;48.012;10.968;2023-09-30T02:48:10;16.00;99.90
5834;DHT22;2943;48.012;10.968;2023-09-30T02:50:37;16.00;99.90
5834;DHT22;2943;48.012;10.968;2023-09-30T02:53:04;16.00;99.90
5834;DHT22;2943;48.012;10.968;2023-09-30T02:55:31;16.00;99.90
5834;DHT22;2943;48.012;10.968;2023-09-30T02:57:58;15.90;99.90
5834;DHT22;2943;48.012;10.968;2023-09-30T03:00:26;15.90;99.90
5834;DHT22;2943;48.012;10.968;2023-09-30T03:02:53;15.90;99.90
5834;DHT22;2943;48.012;10.968;2023-09-30T03:05:21;15.90;99.90
5834;DHT22;2943;48.012;10.968;2023-09-30T03:07:48;15.90;99.90
5834;DHT22;2943;48.012;10.968;2023-09-30T03:10:16;15.90;99.90
5834;DHT22;2943;48.012;10.968;2023-09-30T03:12:45;15.80;99.90
5834;DHT22;2943;48.012;10.968;2023-09-30T03:15:12;15.80;99.90
5834;DHT22;2943;48.012;10.968;2023-09-30T03:17:40;15.80;99.90
5834;DHT22;2943;48.012;10.968;2023-09-30T03:20:07;15.80;99.90
5834;DHT22;2943;48.012;10.968;2023-09-30T03:22:39;15.80;99.90
5834;DHT22;2943;48.012;10.968;2023-09-30T03:25:07;15.80;99.90
5834;DHT22;2943;48.012;10.968;2023-09-30T03:27:34;15.90;99.90
5834;DHT22;2943;48.012;10.968;2023-09-30T03:30:02;15.80;99.90
5834;DHT22;2943;48.012;10.968;2023-09-30T03:32:29;15.80;99.90
5834;DHT22;2943;48.012;10.968;2023-09-30T03:34:55;15.70;99.90
5834;DHT22;2943;48.012;10.968;2023-09-30T03:37:24;15.70;99.90
5834;DHT22;2943;48.012;10.968;2023-09-30T03:39:53;15.70;99.90
5834;DHT22;2943;48.012;10.968;2023-09-30T03:42:20;15.60;99.90
5834;DHT22;2943;48.012;10.968;2023-09-30T03:44:46;15.60;99.90
5834;DHT22;2943;48.012;10.968;2023-09-30T03:47:14;15.60;99.90
5834;DHT22;2943;48.012;10.968;2023-09-30T03:49:40;15.60;99.90
5834;DHT22;2943;48.012;10.968;2023-09-30T03:52:07;15.60;99.90
5834;DHT22;2943;48.012;10.968;2023-09-30T03:54:34;15.70;99.90
5834;DHT22;2943;48.012;10.968;2023-09-30T03:57:02;15.70;99.90
5834;DHT22;2943;48.012;10.968;2023-09-30T03:59:29;15.70;99.90
5834;DHT22;2943;48.012;10.968;2023-09-30T04:01:56;15.70;99.90
5834;DHT22;2943;48.012;10.968;2023-09-30T04:04:23;15.70;99.90
5834;DHT22;2943;48.012;10.968;2023-09-30T04:06:50;15.70;99.90
5834;DHT22;2943;48.012;10.968;2023-09-30T04:09:17;15.60;99.90
5834;DHT22;2943;48.012;10.968;2023-09-30T04:11:44;15.70;99.90
5834;DHT22;2943;48.012;10.968;2023-09-30T04:14:13;15.70;99.90
5834;DHT22;2943;48.012;10.968;2023-09-30T04:16:42;15.70;99.90
5834;DHT22;2943;48.012;10.968;2023-09-30T04:19:09;15.60;99.90
5834;DHT22;2943;48.012;10.968;2023-09-30T04:21:36;15.60;99.90
5834;DHT22;2943;48.012;10.968;2023-09-30T04:24:04;15.60;99.90
5834;DHT22;2943;48.012;10.968;2023-09-30T04:26:32;15.60;99.90
5834;DHT22;2943;48.012;10.968;2023-09-30T04:28:58;15.60;99.90
5834;DHT22;2943;48.012;10.968;2023-09-30T04:31:29;15.60;99.90
5834;DHT22;2943;48.012;10.968;2023-09-30T04:33:56;15.60;99.90
5834;DHT22;2943;48.012;10.968;2023-09-30T04:36:23;15.60;99.90
5834;DHT22;2943;48.012;10.968;2023-09-30T04:38:50;15.50;99.90
5834;DHT22;2943;48.012;10.968;2023-09-30T04:41:17;15.50;99.90
5834;DHT22;2943;48.012;10.968;2023-09-30T04:43:44;15.50;99.90
5834;DHT22;2943;48.012;10.968;2023-09-30T04:46:11;15.40;99.90
5834;DHT22;2943;48.012;10.968;2023-09-30T04:48:40;15.40;99.90
5834;DHT22;2943;48.012;10.968;2023-09-30T04:51:07;15.40;99.90
5834;DHT22;2943;48.012;10.968;2023-09-30T04:53:33;15.40;99.90
5834;DHT22;2943;48.012;10.968;2023-09-30T04:56:00;15.40;99.90
5834;DHT22;2943;48.012;10.968;2023-09-30T04:58:27;15.40;99.90
5834;DHT22;2943;48.012;10.968;2023-09-30T05:00:55;15.40;99.90
5834;DHT22;2943;48.012;10.968;2023-09-30T05:03:21;15.40;99.90
5834;DHT22;2943;48.012;10.968;2023-09-30T05:05:50;15.40;99.90
5834;DHT22;2943;48.012;10.968;2023-09-30T05:08:18;15.40;99.90
5834;DHT22;2943;48.012;10.968;2023-09-30T05:10:45;15.40;99.90
5834;DHT22;2943;48.012;10.968;2023-09-30T05:13:13;15.40;99.90
5834;DHT22;2943;48.012;10.968;2023-09-30T05:15:40;15.40;99.90
5834;DHT22;2943;48.012;10.968;2023-09-30T05:18:07;15.30;99.90
5834;DHT22;2943;48.012;10.968;2023-09-30T05:20:35;15.30;99.90
5834;DHT22;2943;48.012;10.968;2023-09-30T05:23:05;15.30;99.90
5834;DHT22;2943;48.012;10.968;2023-09-30T05:25:32;15.30;99.90
5834;DHT22;2943;48.012;10.968;2023-09-30T05:27:59;15.60;99.90
5834;DHT22;2943;48.012;10.968;2023-09-30T05:30:25;15.90;99.90
5834;DHT22;2943;48.012;10.968;2023-09-30T05:32:52;16.10;99.90
5834;DHT22;2943;48.012;10.968;2023-09-30T05:35:19;16.30;99.90
5834;DHT22;2943;48.012;10.968;2023-09-30T05:37:47;16.40;99.90
5834;DHT22;2943;48.012;10.968;2023-09-30T05:40:19;16.30;99.90
5834;DHT22;2943;48.012;10.968;2023-09-30T05:42:49;16.20;99.90
5834;DHT22;2943;48.012;10.968;2023-09-30T05:45:16;16.00;99.90
5834;DHT22;2943;48.012;10.968;2023-09-30T05:47:42;15.90;99.90
5834;DHT22;2943;48.012;10.968;2023-09-30T05:50:10;15.80;99.90
5834;DHT22;2943;48.012;10.968;2023-09-30T05:52:40;15.70;99.90
5834;DHT22;2943;48.012;10.968;2023-09-30T05:55:07;15.60;99.90
5834;DHT22;2943;48.012;10.968;2023-09-30T05:57:35;15.50;99.90
5834;DHT22;2943;48.012;10.968;2023-09-30T06:00:03;15.50;99.90
5834;DHT22;2943;48.012;10.968;2023-09-30T06:02:37;15.40;99.90
5834;DHT22;2943;48.012;10.968;2023-09-30T06:05:05;15.30;99.90
5834;DHT22;2943;48.012;10.968;2023-09-30T06:07:32;15.30;99.90
5834;DHT22;2943;48.012;10.968;2023-09-30T06:09:59;15.30;99.90
5834;DHT22;2943;48.012;10.968;2023-09-30T06:12:28;15.30;99.90
5834;DHT22;2943;48.012;10.968;2023-09-30T06:14:55;15.30;99.90
5834;DHT22;2943;48.012;10.968;2023-09-30T06:17:21;15.30;99.90
5834;DHT22;2943;48.012;10.968;2023-09-30T06:19:49;15.30;99.90
5834;DHT22;2943;48.012;10.968;2023-09-30T06:22:15;15.30;99.90
5834;DHT22;2943;48.012;10.968;2023-09-30T06:24:42;15.30;99.90
5834;DHT22;2943;48.012;10.968;2023-09-30T06:27:10;15.20;99.90
5834;DHT22;2943;48.012;10.968;2023-09-30T06:29:38;15.20;99.90
5834;DHT22;2943;48.012;10.968;2023-09-30T06:32:07;15.20;99.90
5834;DHT22;2943;48.012;10.968;2023-09-30T06:34:34;15.20;99.90
5834;DHT22;2943;48.012;10.968;2023-09-30T06:37:01;15.20;99.90
5834;DHT22;2943;48.012;10.968;2023-09-30T06:39:28;15.20;99.90
5834;DHT22;2943;48.012;10.968;2023-09-30T06:41:55;15.20;99.90
5834;DHT22;2943;48.012;10.968;2023-09-30T06:44:22;15.30;99.90
5834;DHT22;2943;48.012;10.968;2023-09-30T06:46:50;15.30;99.90
5834;DHT22;2943;48.012;10.968;2023-09-30T06:49:18;15.30;99.90
5834;DHT22;2943;48.012;10.968;2023-09-30T06:51:45;15.40;99.90
5834;DHT22;2943;48.012;10.968;2023-09-30T06:54:13;15.40;99.90
5834;DHT22;2943;48.012;10.968;2023-09-30T06:56:40;15.40;99.90
5834;DHT22;2943;48.012;10.968;2023-09-30T06:59:07;15.40;99.90
5834;DHT22;2943;48.012;10.968;2023-09-30T07:01:34;15.40;99.90
5834;DHT22;2943;48.012;10.968;2023-09-30T07:04:02;15.40;99.90
5834;DHT22;2943;48.012;10.968;2023-09-30T07:06:30;15.40;99.90
5834;DHT22;2943;48.012;10.968;2023-09-30T07:08:57;15.40;99.90
5834;DHT22;2943;48.012;10.968;2023-09-30T07:11:27;15.40;99.90
5834;DHT22;2943;48.012;10.968;2023-09-30T07:13:55;15.50;99.90
5834;DHT22;2943;48.012;10.968;2023-09-30T07:16:22;15.50;99.90
5834;DHT22;2943;48.012;10.968;2023-09-30T07:18:48;15.50;99.90
5834;DHT22;2943;48.012;10.968;2023-09-30T07:21:15;15.60;99.90
5834;DHT22;2943;48.012;10.968;2023-09-30T07:23:44;15.60;99.90
5834;DHT22;2943;48.012;10.968;2023-09-30T07:26:10;15.50;99.90
5834;DHT22;2943;48.012;10.968;2023-09-30T07:28:37;15.60;99.90
5834;DHT22;2943;48.012;10.968;2023-09-30T07:31:03;15.50;99.90
5834;DHT22;2943;48.012;10.968;2023-09-30T07:33:30;15.50;99.90
5834;DHT22;2943;48.012;10.968;2023-09-30T07:35:57;15.50;99.90
5834;DHT22;2943;48.012;10.968;2023-09-30T07:38:24;15.40;99.90
5834;DHT22;2943;48.012;10.968;2023-09-30T07:40:53;15.40;99.90
5834;DHT22;2943;48.012;10.968;2023-09-30T07:43:20;15.40;99.90
5834;DHT22;2943;48.012;10.968;2023-09-30T07:45:47;15.40;99.90
5834;DHT22;2943;48.012;10.968;2023-09-30T07:48:14;15.40;99.90
5834;DHT22;2943;48.012;10.968;2023-09-30T07:50:41;15.50;99.90
5834;DHT22;2943;48.012;10.968;2023-09-30T07:53:09;15.50;99.90
5834;DHT22;2943;48.012;10.968;2023-09-30T07:55:37;15.60;99.90
5834;DHT22;2943;48.012;10.968;2023-09-30T07:58:06;15.70;99.90
5834;DHT22;2943;48.012;10.968;2023-09-30T08:00:33;15.70;99.90
5834;DHT22;2943;48.012;10.968;2023-09-30T08:03:01;15.70;99.90
5834;DHT22;2943;48.012;10.968;2023-09-30T08:05:27;15.70;99.90
5834;DHT22;2943;48.012;10.968;2023-09-30T08:07:54;15.70;99.90
5834;DHT22;2943;48.012;10.968;2023-09-30T08:10:21;15.70;99.90
5834;DHT22;2943;48.012;10.968;2023-09-30T08:12:47;15.70;99.90
5834;DHT22;2943;48.012;10.968;2023-09-30T08:15:16;15.70;99.90
5834;DHT22;2943;48.012;10.968;2023-09-30T08:17:43;15.80;99.90
5834;DHT22;2943;48.012;10.968;2023-09-30T08:20:10;15.80;99.90
5834;DHT22;2943;48.012;10.968;2023-09-30T08:22:37;15.90;99.90
5834;DHT22;2943;48.012;10.968;2023-09-30T08:25:04;16.00;99.90
5834;DHT22;2943;48.012;10.968;2023-09-30T08:27:32;16.00;99.90
5834;DHT22;2943;48.012;10.968;2023-09-30T08:29:59;16.10;99.90
5834;DHT22;2943;48.012;10.968;2023-09-30T08:32:28;16.20;99.90
5834;DHT22;2943;48.012;10.968;2023-09-30T08:34:54;16.20;99.90
5834;DHT22;2943;48.012;10.968;2023-09-30T08:37:21;16.30;99.90
5834;DHT22;2943;48.012;10.968;2023-09-30T08:39:48;16.40;99.90
5834;DHT22;2943;48.012;10.968;2023-09-30T08:42:15;16.50;99.90
5834;DHT22;2943;48.012;10.968;2023-09-30T08:44:44;16.50;99.90
5834;DHT22;2943;48.012;10.968;2023-09-30T08:47:11;16.60;99.90
5834;DHT22;2943;48.012;10.968;2023-09-30T08:49:39;16.60;99.90
5834;DHT22;2943;48.012;10.968;2023-09-30T08:52:08;16.70;99.90
5834;DHT22;2943;48.012;10.968;2023-09-30T08:54:35;16.70;99.90
5834;DHT22;2943;48.012;10.968;2023-09-30T08:57:03;16.60;99.90
5834;DHT22;2943;48.012;10.968;2023-09-30T08:59:29;16.80;99.90
5834;DHT22;2943;48.012;10.968;2023-09-30T09:01:57;17.00;99.90
5834;DHT22;2943;48.012;10.968;2023-09-30T09:04:24;17.20;99.90
5834;DHT22;2943;48.012;10.968;2023-09-30T09:06:54;17.50;99.90
5834;DHT22;2943;48.012;10.968;2023-09-30T09:09:21;17.70;99.90
5834;DHT22;2943;48.012;10.968;2023-09-30T09:11:47;17.90;99.90
5834;DHT22;2943;48.012;10.968;2023-09-30T09:14:14;18.00;99.90
5834;DHT22;2943;48.012;10.968;2023-09-30T09:19:25;18.30;99.90
5834;DHT22;2943;48.012;10.968;2023-09-30T09:21:56;18.40;99.90
5834;DHT22;2943;48.012;10.968;2023-09-30T09:24:26;18.60;99.90
5834;DHT22;2943;48.012;10.968;2023-09-30T09:26:54;18.70;99.90
5834;DHT22;2943;48.012;10.968;2023-09-30T09:29:29;18.80;99.90
5834;DHT22;2943;48.012;10.968;2023-09-30T09:32:06;18.90;99.90
5834;DHT22;2943;48.012;10.968;2023-09-30T09:34:32;19.00;99.90
5834;DHT22;2943;48.012;10.968;2023-09-30T09:37:01;19.00;99.90
5834;DHT22;2943;48.012;10.968;2023-09-30T09:39:39;19.00;99.90
5834;DHT22;2943;48.012;10.968;2023-09-30T09:42:05;19.00;99.90
5834;DHT22;2943;48.012;10.968;2023-09-30T09:44:32;18.90;99.90
5834;DHT22;2943;48.012;10.968;2023-09-30T09:46:59;18.80;99.90
5834;DHT22;2943;48.012;10.968;2023-09-30T09:49:28;18.50;99.90
5834;DHT22;2943;48.012;10.968;2023-09-30T09:51:56;18.40;99.90
5834;DHT22;2943;48.012;10.968;2023-09-30T09:54:24;18.30;99.90
5834;DHT22;2943;48.012;10.968;2023-09-30T09:56:51;18.30;99.90
5834;DHT22;2943;48.012;10.968;2023-09-30T09:59:19;18.30;99.90
5834;DHT22;2943;48.012;10.968;2023-09-30T10:01:48;18.20;99.90
5834;DHT22;2943;48.012;10.968;2023-09-30T10:04:15;18.20;99.90
5834;DHT22;2943;48.012;10.968;2023-09-30T10:06:42;18.20;99.90
5834;DHT22;2943;48.012;10.968;2023-09-30T10:09:10;18.20;99.90
5834;DHT22;2943;48.012;10.968;2023-09-30T10:11:39;18.30;99.90
5834;DHT22;2943;48.012;10.968;2023-09-30T10:14:07;18.50;99.90
5834;DHT22;2943;48.012;10.968;2023-09-30T10:16:49;18.60;99.90
5834;DHT22;2943;48.012;10.968;2023-09-30T10:19:17;18.70;99.90
5834;DHT22;2943;48.012;10.968;2023-09-30T10:24:28;18.80;99.90
5834;DHT22;2943;48.012;10.968;2023-09-30T10:29:41;18.70;99.90
5834;DHT22;2943;48.012;10.968;2023-09-30T10:32:08;18.80;99.90
5834;DHT22;2943;48.012;10.968;2023-09-30T10:34:34;18.70;99.90
5834;DHT22;2943;48.012;10.968;2023-09-30T10:39:52;18.70;99.90
5834;DHT22;2943;48.012;10.968;2023-09-30T10:45:01;18.70;99.90
5834;DHT22;2943;48.012;10.968;2023-09-30T10:47:36;18.70;99.90
5834;DHT22;2943;48.012;10.968;2023-09-30T10:50:03;18.70;99.90
5834;DHT22;2943;48.012;10.968;2023-09-30T10:52:44;18.70;99.90
5834;DHT22;2943;48.012;10.968;2023-09-30T10:55:11;18.60;99.90
5834;DHT22;2943;48.012;10.968;2023-09-30T10:57:38;18.70;99.90
5834;DHT22;2943;48.012;10.968;2023-09-30T11:00:11;18.70;99.90
5834;DHT22;2943;48.012;10.968;2023-09-30T11:02:49;18.70;99.90
5834;DHT22;2943;48.012;10.968;2023-09-30T11:05:16;18.80;99.90
5834;DHT22;2943;48.012;10.968;2023-09-30T11:07:44;18.80;99.90
5834;DHT22;2943;48.012;10.968;2023-09-30T11:10:14;18.70;99.90
5834;DHT22;2943;48.012;10.968;2023-09-30T11:12:52;18.70;99.90
5834;DHT22;2943;48.012;10.968;2023-09-30T11:15:20;18.80;99.90
5834;DHT22;2943;48.012;10.968;2023-09-30T11:17:47;18.80;99.90
5834;DHT22;2943;48.012;10.968;2023-09-30T11:20:14;18.90;99.90
5834;DHT22;2943;48.012;10.968;2023-09-30T11:22:42;18.90;99.90
5834;DHT22;2943;48.012;10.968;2023-09-30T11:25:14;19.00;99.90
5834;DHT22;2943;48.012;10.968;2023-09-30T11:27:41;19.20;99.90
5834;DHT22;2943;48.012;10.968;2023-09-30T11:30:08;19.20;99.90
5834;DHT22;2943;48.012;10.968;2023-09-30T11:32:37;19.30;99.90
5834;DHT22;2943;48.012;10.968;2023-09-30T11:35:05;19.30;99.90
5834;DHT22;2943;48.012;10.968;2023-09-30T11:37:34;19.30;99.90
5834;DHT22;2943;48.012;10.968;2023-09-30T11:40:11;19.40;99.90
5834;DHT22;2943;48.012;10.968;2023-09-30T11:42:38;19.40;99.90
5834;DHT22;2943;48.012;10.968;2023-09-30T11:45:18;19.40;99.90
5834;DHT22;2943;48.012;10.968;2023-09-30T11:47:46;19.40;99.90
5834;DHT22;2943;48.012;10.968;2023-09-30T11:50:13;19.40;99.90
5834;DHT22;2943;48.012;10.968;2023-09-30T11:52:43;19.50;99.90
5834;DHT22;2943;48.012;10.968;2023-09-30T11:55:11;19.60;99.90
5834;DHT22;2943;48.012;10.968;2023-09-30T11:57:39;19.60;99.90
5834;DHT22;2943;48.012;10.968;2023-09-30T12:00:06;19.70;99.90
5834;DHT22;2943;48.012;10.968;2023-09-30T12:02:38;19.70;99.90
5834;DHT22;2943;48.012;10.968;2023-09-30T12:05:07;19.60;99.90
5834;DHT22;2943;48.012;10.968;2023-09-30T12:07:37;19.60;99.90
5834;DHT22;2943;48.012;10.968;2023-09-30T12:10:04;19.70;99.90
5834;DHT22;2943;48.012;10.968;2023-09-30T12:12:30;19.60;99.90
5834;DHT22;2943;48.012;10.968;2023-09-30T12:14:57;19.60;99.90
5834;DHT22;2943;48.012;10.968;2023-09-30T12:17:23;19.60;99.90
5834;DHT22;2943;48.012;10.968;2023-09-30T12:19:50;19.50;99.90
5834;DHT22;2943;48.012;10.968;2023-09-30T12:22:18;19.40;99.90
5834;DHT22;2943;48.012;10.968;2023-09-30T12:24:45;19.50;99.90
5834;DHT22;2943;48.012;10.968;2023-09-30T12:27:13;19.50;99.90
5834;DHT22;2943;48.012;10.968;2023-09-30T12:29:39;19.60;99.90
5834;DHT22;2943;48.012;10.968;2023-09-30T12:32:06;19.70;99.90
5834;DHT22;2943;48.012;10.968;2023-09-30T12:34:33;19.80;99.90
5834;DHT22;2943;48.012;10.968;2023-09-30T12:37:01;19.90;99.90
5834;DHT22;2943;48.012;10.968;2023-09-30T12:39:30;20.00;99.90
5834;DHT22;2943;48.012;10.968;2023-09-30T12:41:58;20.10;99.90
5834;DHT22;2943;48.012;10.968;2023-09-30T12:44:25;20.20;99.90
5834;DHT22;2943;48.012;10.968;2023-09-30T12:46:52;20.30;99.90
5834;DHT22;2943;48.012;10.968;2023-09-30T12:49:18;20.30;99.90
5834;DHT22;2943;48.012;10.968;2023-09-30T12:51:45;20.40;99.90
5834;DHT22;2943;48.012;10.968;2023-09-30T12:54:12;20.40;99.90
5834;DHT22;2943;48.012;10.968;2023-09-30T12:56:41;20.40;99.90
5834;DHT22;2943;48.012;10.968;2023-09-30T12:59:08;20.40;99.90
5834;DHT22;2943;48.012;10.968;2023-09-30T13:01:34;20.40;99.90
5834;DHT22;2943;48.012;10.968;2023-09-30T13:04:01;20.40;99.90
5834;DHT22;2943;48.012;10.968;2023-09-30T13:06:28;20.50;99.90
5834;DHT22;2943;48.012;10.968;2023-09-30T13:08:57;20.50;99.90
5834;DHT22;2943;48.012;10.968;2023-09-30T13:11:24;20.50;99.90
5834;DHT22;2943;48.012;10.968;2023-09-30T13:13:52;20.50;99.90
5834;DHT22;2943;48.012;10.968;2023-09-30T13:16:18;20.40;99.90
5834;DHT22;2943;48.012;10.968;2023-09-30T13:18:45;20.40;99.90
5834;DHT22;2943;48.012;10.968;2023-09-30T13:21:12;20.40;99.90
5834;DHT22;2943;48.012;10.968;2023-09-30T13:23:39;20.40;99.90
5834;DHT22;2943;48.012;10.968;2023-09-30T13:26:05;20.40;99.90
5834;DHT22;2943;48.012;10.968;2023-09-30T13:28:33;20.40;99.90
5834;DHT22;2943;48.012;10.968;2023-09-30T13:31:01;20.40;99.90
5834;DHT22;2943;48.012;10.968;2023-09-30T13:33:27;20.40;99.90
5834;DHT22;2943;48.012;10.968;2023-09-30T13:35:54;20.40;99.90
5834;DHT22;2943;48.012;10.968;2023-09-30T13:38:21;20.50;99.90
5834;DHT22;2943;48.012;10.968;2023-09-30T13:40:48;20.50;99.90
5834;DHT22;2943;48.012;10.968;2023-09-30T13:43:15;20.60;99.90
5834;DHT22;2943;48.012;10.968;2023-09-30T13:45:41;20.60;99.90
5834;DHT22;2943;48.012;10.968;2023-09-30T13:48:09;20.70;99.90
5834;DHT22;2943;48.012;10.968;2023-09-30T13:50:36;20.60;99.90
5834;DHT22;2943;48.012;10.968;2023-09-30T13:53:03;20.50;99.90
5834;DHT22;2943;48.012;10.968;2023-09-30T13:55:30;20.40;99.90
5834;DHT22;2943;48.012;10.968;2023-09-30T13:57:57;20.30;99.90
5834;DHT22;2943;48.012;10.968;2023-09-30T14:00:23;20.20;99.90
5834;DHT22;2943;48.012;10.968;2023-09-30T14:02:50;20.10;99.90
5834;DHT22;2943;48.012;10.968;2023-09-30T14:05:18;19.90;99.90
5834;DHT22;2943;48.012;10.968;2023-09-30T14:07:45;19.90;99.90
5834;DHT22;2943;48.012;10.968;2023-09-30T14:10:12;19.80;99.90
5834;DHT22;2943;48.012;10.968;2023-09-30T14:12:38;19.70;99.90
5834;DHT22;2943;48.012;10.968;2023-09-30T14:15:06;19.70;99.90
5834;DHT22;2943;48.012;10.968;2023-09-30T14:17:33;19.70;99.90
5834;DHT22;2943;48.012;10.968;2023-09-30T14:20:00;19.70;99.90
5834;DHT22;2943;48.012;10.968;2023-09-30T14:22:28;19.60;99.90
5834;DHT22;2943;48.012;10.968;2023-09-30T14:24:55;19.70;99.90
5834;DHT22;2943;48.012;10.968;2023-09-30T14:27:22;19.80;99.90
5834;DHT22;2943;48.012;10.968;2023-09-30T14:29:49;19.80;99.90
5834;DHT22;2943;48.012;10.968;2023-09-30T14:32:15;19.80;99.90
5834;DHT22;2943;48.012;10.968;2023-09-30T14:34:42;19.90;99.90
5834;DHT22;2943;48.012;10.968;2023-09-30T14:37:09;19.90;99.90
5834;DHT22;2943;48.012;10.968;2023-09-30T14:39:37;19.90;99.90
5834;DHT22;2943;48.012;10.968;2023-09-30T14:42:04;20.00;99.90
5834;DHT22;2943;48.012;10.968;2023-09-30T14:44:31;20.00;99.90
5834;DHT22;2943;48.012;10.968;2023-09-30T14:46:58;20.00;99.90
5834;DHT22;2943;48.012;10.968;2023-09-30T14:49:25;19.90;99.90
5834;DHT22;2943;48.012;10.968;2023-09-30T14:51:52;19.80;99.90
5834;DHT22;2943;48.012;10.968;2023-09-30T14:54:18;19.70;99.90
5834;DHT22;2943;48.012;10.968;2023-09-30T14:56:46;19.60;99.90
5834;DHT22;2943;48.012;10.968;2023-09-30T14:59:13;19.50;99.90
5834;DHT22;2943;48.012;10.968;2023-09-30T15:01:41;19.50;99.90
5834;DHT22;2943;48.012;10.968;2023-09-30T15:04:08;19.50;99.90
5834;DHT22;2943;48.012;10.968;2023-09-30T15:06:34;19.50;99.90
5834;DHT22;2943;48.012;10.968;2023-09-30T15:09:02;19.40;99.90
5834;DHT22;2943;48.012;10.968;2023-09-30T15:11:29;19.40;99.90
5834;DHT22;2943;48.012;10.968;2023-09-30T15:13:57;19.40;99.90
5834;DHT22;2943;48.012;10.968;2023-09-30T15:16:24;19.40;99.90
5834;DHT22;2943;48.012;10.968;2023-09-30T15:18:51;19.40;99.90
5834;DHT22;2943;48.012;10.968;2023-09-30T15:21:17;19.40;99.90
5834;DHT22;2943;48.012;10.968;2023-09-30T15:23:45;19.50;99.90
5834;DHT22;2943;48.012;10.968;2023-09-30T15:26:11;19.50;99.90
5834;DHT22;2943;48.012;10.968;2023-09-30T15:28:38;19.50;99.90
5834;DHT22;2943;48.012;10.968;2023-09-30T15:31:06;19.50;99.90
5834;DHT22;2943;48.012;10.968;2023-09-30T15:33:33;19.40;99.90
5834;DHT22;2943;48.012;10.968;2023-09-30T15:36:00;19.30;99.90
5834;DHT22;2943;48.012;10.968;2023-09-30T15:38:29;19.30;99.90
5834;DHT22;2943;48.012;10.968;2023-09-30T15:40:56;19.30;99.90
5834;DHT22;2943;48.012;10.968;2023-09-30T15:43:23;19.30;99.90
5834;DHT22;2943;48.012;10.968;2023-09-30T15:45:49;19.30;99.90
5834;DHT22;2943;48.012;10.968;2023-09-30T15:48:18;19.30;99.90
5834;DHT22;2943;48.012;10.968;2023-09-30T15:50:45;19.30;99.90
5834;DHT22;2943;48.012;10.968;2023-09-30T15:53:12;19.30;99.90
5834;DHT22;2943;48.012;10.968;2023-09-30T15:55:38;19.30;99.90
5834;DHT22;2943;48.012;10.968;2023-09-30T15:58:05;19.30;99.90
5834;DHT22;2943;48.012;10.968;2023-09-30T16:00:34;19.30;99.90